Time;durP1;ratioP1;P1;durP2;ratioP2;P2;SDS_P1;SDS_P2;PMS_P1;PMS_P2;Temp;Humidity;BMP_temperature;BMP_pressure;BME280_temperature;BME280_humidity;BME280_pressure;Samples;Min_cycle;Max_cycle;Signal;HPM_P1;HPM_P2
2021/04/30 00:01:28;;;;;;;5.37;4.87;;;;;;;6.38;58.83;98398.00;5173363;27;42922;-75
2021/04/30 00:03:55;;;;;;;6.23;5.67;;;;;;;6.35;59.27;98392.91;5171309;27;39830;-75
2021/04/30 00:06:23;;;;;;;6.57;5.97;;;;;;;6.37;59.16;98406.81;5173035;27;41740;-75
2021/04/30 00:08:51;;;;;;;5.87;5.27;;;;;;;6.34;59.10;98411.38;5154562;27;41690;-75
2021/04/30 00:11:18;;;;;;;5.53;5.03;;;;;;;6.32;59.04;98407.97;5154811;27;42410;-75
2021/04/30 00:13:45;;;;;;;5.20;4.80;;;;;;;6.18;58.88;98392.09;5173350;27;40674;-75
2021/04/30 00:16:12;;;;;;;4.70;4.30;;;;;;;6.23;59.05;98408.47;5172990;27;42518;-75
2021/04/30 00:18:40;;;;;;;8.13;7.33;;;;;;;6.18;59.44;98403.47;5171414;27;43366;-74
2021/04/30 00:21:07;;;;;;;5.57;5.17;;;;;;;6.12;59.60;98396.72;5171373;27;41173;-75
2021/04/30 00:23:34;;;;;;;7.13;6.00;;;;;;;6.05;59.96;98395.38;5172386;27;38594;-75
2021/04/30 00:26:06;;;;;;;7.03;6.33;;;;;;;6.04;60.38;98404.19;5171341;27;42395;-75
2021/04/30 00:28:33;;;;;;;7.33;6.73;;;;;;;6.03;61.17;98396.38;5170667;27;43406;-75
2021/04/30 00:31:02;;;;;;;7.30;6.60;;;;;;;6.00;61.17;98401.78;5172804;27;42935;-74
2021/04/30 00:33:29;;;;;;;8.23;7.43;;;;;;;5.97;61.24;98396.66;5169539;27;39936;-76
2021/04/30 00:35:56;;;;;;;6.40;5.90;;;;;;;5.94;60.91;98410.81;5170707;27;41255;-75
2021/04/30 00:38:24;;;;;;;10.47;7.97;;;;;;;5.89;60.80;98407.56;5170472;27;43354;-75
2021/04/30 00:40:53;;;;;;;6.97;6.37;;;;;;;5.87;61.39;98412.03;5171646;27;42265;-75
2021/04/30 00:43:21;;;;;;;9.20;8.23;;;;;;;5.84;61.65;98406.91;5154528;27;40260;-75
2021/04/30 00:45:52;;;;;;;7.87;7.17;;;;;;;5.82;62.34;98400.88;5174084;27;41326;-75
2021/04/30 00:48:20;;;;;;;6.20;5.60;;;;;;;5.67;62.02;98388.53;5173850;27;43695;-75
2021/04/30 00:50:48;;;;;;;7.97;7.20;;;;;;;5.80;62.82;98421.16;5172280;27;41563;-75
2021/04/30 00:53:16;;;;;;;7.80;7.10;;;;;;;5.78;63.46;98412.50;5173633;27;41215;-75
2021/04/30 00:55:43;;;;;;;7.10;6.50;;;;;;;5.74;63.34;98417.03;5173588;27;41556;-75
2021/04/30 00:58:11;;;;;;;8.10;7.40;;;;;;;5.73;63.19;98423.22;5174478;27;43584;-75
2021/04/30 01:00:39;;;;;;;6.77;6.17;;;;;;;5.68;62.69;98427.88;5170922;27;42271;-76
2021/04/30 01:03:08;;;;;;;7.13;6.53;;;;;;;5.60;62.86;98419.50;5171258;27;40121;-75
2021/04/30 01:05:36;;;;;;;5.97;5.47;;;;;;;5.61;62.73;98430.84;5170262;27;42398;-75
2021/04/30 01:08:04;;;;;;;5.50;5.00;;;;;;;5.58;63.21;98425.75;5171267;27;42354;-75
2021/04/30 01:10:31;;;;;;;6.57;6.00;;;;;;;5.53;62.68;98427.78;5170425;27;42188;-76
2021/04/30 01:12:58;;;;;;;7.37;6.67;;;;;;;5.50;62.56;98433.16;5171322;27;39929;-75
2021/04/30 01:15:26;;;;;;;7.10;6.40;;;;;;;5.46;63.10;98426.34;5154048;27;40935;-76
2021/04/30 01:17:54;;;;;;;6.97;6.30;;;;;;;5.46;63.11;98431.59;5171713;27;42273;-75
2021/04/30 01:20:22;;;;;;;7.90;7.20;;;;;;;5.39;63.12;98424.03;5172164;27;42173;-75
2021/04/30 01:22:52;;;;;;;7.50;6.80;;;;;;;5.35;63.92;98409.34;5170579;27;39801;-75
2021/04/30 01:25:22;;;;;;;8.23;7.50;;;;;;;5.43;64.09;98431.78;5153162;27;40690;-75
2021/04/30 01:27:49;;;;;;;8.40;7.57;;;;;;;5.36;63.91;98421.56;5154033;27;41047;-75
2021/04/30 01:30:20;;;;;;;9.10;8.20;;;;;;;5.37;64.45;98425.88;5170093;27;42278;-75
2021/04/30 01:32:47;;;;;;;8.70;7.90;;;;;;;5.35;64.04;98435.59;5171529;27;39796;-75
2021/04/30 01:35:19;;;;;;;7.83;7.07;;;;;;;5.26;64.21;98430.81;5169843;27;41925;-75
2021/04/30 01:37:48;;;;;;;7.83;7.13;;;;;;;5.27;63.98;98439.53;5170070;27;43421;-76
2021/04/30 01:40:18;;;;;;;7.33;6.63;;;;;;;5.25;64.22;98439.59;5170584;27;42974;-75
2021/04/30 01:42:57;;;;;;;6.90;6.30;;;;;;;5.22;64.14;98449.38;5171183;27;38938;-75
2021/04/30 01:45:27;;;;;;;7.87;7.17;;;;;;;5.17;64.02;98441.75;5169990;27;42312;-75
2021/04/30 01:47:54;;;;;;;7.00;6.30;;;;;;;5.15;63.59;98459.34;5171506;27;42695;-75
2021/04/30 01:50:21;;;;;;;7.90;7.20;;;;;;;5.11;63.66;98457.78;5169994;27;42633;-75
2021/04/30 01:52:48;;;;;;;7.53;6.83;;;;;;;5.05;63.75;98447.56;5152951;27;39577;-75
2021/04/30 01:55:16;;;;;;;7.60;6.90;;;;;;;5.00;63.61;98460.91;5171647;27;42152;-75
2021/04/30 01:57:45;;;;;;;7.00;6.27;;;;;;;4.95;63.46;98459.41;5170432;27;42483;-75
2021/04/30 02:00:20;;;;;;;5.97;5.37;;;;;;;4.89;63.42;98468.41;5171264;27;42052;-76
2021/04/30 02:02:48;;;;;;;5.83;5.33;;;;;;;4.83;63.43;98470.44;5150113;27;40559;-75
2021/04/30 02:05:16;;;;;;;5.80;5.30;;;;;;;4.73;63.43;98462.16;5149718;27;41770;-75
2021/04/30 02:07:43;;;;;;;7.23;6.53;;;;;;;4.73;63.50;98466.53;5149340;27;43274;-75
2021/04/30 02:10:15;;;;;;;7.07;6.47;;;;;;;4.67;63.34;98467.69;5158913;27;42904;-75
2021/04/30 02:12:45;;;;;;;9.27;8.30;;;;;;;4.61;63.65;98468.81;5168984;27;40556;-75
2021/04/30 02:15:14;;;;;;;6.27;5.77;;;;;;;4.55;64.20;98465.63;5152959;27;41794;-75
2021/04/30 02:17:42;;;;;;;8.63;7.83;;;;;;;4.51;64.46;98467.50;5168708;27;42676;-75
2021/04/30 02:20:11;;;;;;;7.33;6.57;;;;;;;4.47;64.41;98465.94;5152942;27;41119;-76
2021/04/30 02:22:57;;;;;;;8.20;7.40;;;;;;;4.44;64.48;98476.59;5171217;27;39518;-75
2021/04/30 02:25:29;;;;;;;7.97;7.27;;;;;;;4.39;64.16;98473.31;5169309;27;41031;-75
2021/04/30 02:27:58;;;;;;;7.57;6.57;;;;;;;4.36;64.35;98472.56;5153319;27;42711;-75
2021/04/30 02:30:31;;;;;;;8.17;7.37;;;;;;;4.32;64.04;98474.50;5170435;27;42611;-75
2021/04/30 02:32:59;;;;;;;7.33;6.63;;;;;;;4.28;64.18;98473.78;5168746;27;40341;-75
2021/04/30 02:35:29;;;;;;;7.07;6.47;;;;;;;4.20;64.16;98472.41;5168766;27;41822;-75
2021/04/30 02:37:56;;;;;;;7.43;6.73;;;;;;;4.18;64.19;98476.84;5169173;27;43436;-75
2021/04/30 02:40:27;;;;;;;7.20;6.60;;;;;;;4.13;64.34;98481.44;5170456;27;41862;-75
2021/04/30 02:42:55;;;;;;;7.33;6.73;;;;;;;4.01;64.46;98467.09;5173669;27;41153;-74
2021/04/30 02:45:24;;;;;;;8.33;6.37;;;;;;;4.03;64.51;98480.13;5172981;27;41614;-75
2021/04/30 02:47:52;;;;;;;6.57;6.03;;;;;;;4.03;64.35;98485.38;5172253;27;43261;-75
2021/04/30 02:50:22;;;;;;;7.57;6.87;;;;;;;3.99;64.39;98495.09;5174800;27;42114;-75
2021/04/30 02:52:50;;;;;;;6.77;6.17;;;;;;;3.96;64.49;98488.22;5172894;27;39816;-75
2021/04/30 02:55:20;;;;;;;7.33;6.63;;;;;;;3.93;64.94;98488.38;5174100;27;41937;-75
2021/04/30 02:57:50;;;;;;;9.30;8.50;;;;;;;3.92;64.82;98496.28;5173130;27;42771;-75
2021/04/30 03:00:18;;;;;;;8.70;7.80;;;;;;;3.88;64.87;98487.69;5174029;27;41734;-75
2021/04/30 03:02:46;;;;;;;10.20;9.20;;;;;;;3.86;65.04;98479.06;5171998;27;39932;-75
2021/04/30 03:05:14;;;;;;;7.43;6.73;;;;;;;3.83;65.24;98471.31;5173127;27;41371;-75
2021/04/30 03:07:41;;;;;;;9.20;8.30;;;;;;;3.83;65.54;98479.16;5151301;27;41263;-75
2021/04/30 03:10:09;;;;;;;8.77;7.97;;;;;;;3.81;65.57;98470.56;5152328;27;41976;-75
2021/04/30 03:12:37;;;;;;;11.80;10.70;;;;;;;3.83;66.37;98473.94;5151494;27;40088;-75
2021/04/30 03:15:05;;;;;;;12.77;11.53;;;;;;;3.83;67.18;98475.72;5162000;27;41534;-75
2021/04/30 03:17:32;;;;;;;11.67;10.47;;;;;;;3.84;67.57;98475.63;5173827;27;43365;-75
2021/04/30 03:20:00;;;;;;;10.20;9.20;;;;;;;3.85;67.50;98469.47;5156289;27;41254;-75
2021/04/30 03:22:27;;;;;;;10.00;9.00;;;;;;;3.85;67.56;98472.09;5171378;27;40010;-75
2021/04/30 03:24:55;;;;;;;8.93;8.07;;;;;;;3.87;69.03;98461.56;5172928;27;40796;-75
2021/04/30 03:27:22;;;;;;;11.93;10.67;;;;;;;3.80;68.04;98458.38;5173484;27;43442;-75
2021/04/30 03:29:49;;;;;;;11.43;10.33;;;;;;;3.81;67.68;98465.31;5155639;27;41448;-75
2021/04/30 03:32:16;;;;;;;12.37;11.10;;;;;;;3.82;67.39;98467.03;5172045;27;40015;-75
2021/04/30 03:34:44;;;;;;;10.27;9.27;;;;;;;3.81;67.52;98467.94;5171685;27;41293;-74
2021/04/30 03:37:12;;;;;;;8.97;8.17;;;;;;;3.78;67.20;98467.19;5172553;27;42672;-75
2021/04/30 03:39:39;;;;;;;8.27;7.57;;;;;;;3.76;67.00;98467.25;5171604;27;42628;-75
2021/04/30 03:42:06;;;;;;;8.13;7.33;;;;;;;3.74;66.76;98473.47;5174079;27;40796;-75
2021/04/30 03:44:34;;;;;;;8.17;7.47;;;;;;;3.70;66.65;98472.75;5173043;27;41682;-74
2021/04/30 03:47:02;;;;;;;9.77;8.77;;;;;;;3.67;66.48;98477.25;5173573;27;42357;-75
2021/04/30 03:49:29;;;;;;;8.40;7.60;;;;;;;3.55;66.46;98473.38;5173769;27;42048;-75
2021/04/30 03:51:56;;;;;;;11.33;10.13;;;;;;;3.56;66.47;98481.16;5170931;27;40012;-75
2021/04/30 03:54:24;;;;;;;11.33;10.23;;;;;;;3.58;67.42;98486.34;5133964;27;40799;-74
2021/04/30 03:56:51;;;;;;;11.07;9.90;;;;;;;3.51;67.44;98488.34;5134039;27;43039;-75
2021/04/30 03:59:18;;;;;;;10.90;9.90;;;;;;;3.52;67.35;98495.28;5134299;27;41895;-75
2021/04/30 04:01:45;;;;;;;13.47;12.17;;;;;;;3.56;67.36;98496.03;5161731;27;40301;-75
2021/04/30 04:04:13;;;;;;;14.03;12.43;;;;;;;3.53;67.95;98483.91;5172618;27;41539;-75
2021/04/30 04:06:40;;;;;;;11.03;9.93;;;;;;;3.59;68.38;98480.16;5171548;27;42422;-75
2021/04/30 04:09:07;;;;;;;12.43;11.23;;;;;;;3.58;68.15;98478.50;5172895;27;41923;-74
2021/04/30 04:11:35;;;;;;;11.17;9.87;;;;;;;3.65;68.10;98487.78;5154648;27;39735;-75
2021/04/30 04:14:02;;;;;;;9.40;8.43;;;;;;;3.63;67.84;98491.38;5172379;27;41611;-75
2021/04/30 04:16:30;;;;;;;9.80;8.90;;;;;;;3.67;67.60;98492.97;5171941;27;43339;-76
2021/04/30 04:18:57;;;;;;;10.23;9.13;;;;;;;3.54;67.49;98469.06;5170895;27;42196;-75
2021/04/30 04:21:24;;;;;;;8.83;7.93;;;;;;;3.67;67.59;98493.81;5173325;27;40160;-75
2021/04/30 04:23:51;;;;;;;9.40;8.53;;;;;;;3.63;67.89;98488.75;5172735;27;41804;-75
2021/04/30 04:26:18;;;;;;;10.23;9.23;;;;;;;3.71;68.11;98511.09;5170873;27;42717;-75
2021/04/30 04:28:46;;;;;;;11.77;10.57;;;;;;;3.74;68.32;98497.03;5170734;27;42053;-75
2021/04/30 04:31:13;;;;;;;11.90;10.70;;;;;;;3.79;68.82;98505.56;5158721;27;41003;-74
2021/04/30 04:33:41;;;;;;;12.73;11.47;;;;;;;3.87;68.98;98491.22;5154413;27;41586;-74
2021/04/30 04:36:08;;;;;;;13.30;11.90;;;;;;;4.00;68.45;98506.44;5172450;27;43423;-74
2021/04/30 04:38:35;;;;;;;10.13;9.13;;;;;;;4.11;68.17;98509.47;5153910;27;42107;-75
2021/04/30 04:41:02;;;;;;;10.17;9.17;;;;;;;4.23;67.82;98501.94;5159643;27;39659;-75
2021/04/30 04:43:29;;;;;;;9.93;8.97;;;;;;;4.37;67.35;98511.84;5150643;27;41129;-75
2021/04/30 04:45:57;;;;;;;9.13;8.23;;;;;;;4.53;67.09;98512.03;5163349;27;42570;-74
2021/04/30 04:48:25;;;;;;;12.37;11.10;;;;;;;4.73;66.92;98517.22;5172900;27;42323;-74
2021/04/30 04:50:52;;;;;;;12.50;11.13;;;;;;;4.92;66.83;98520.75;5171320;27;39112;-75
2021/04/30 04:53:19;;;;;;;13.67;12.37;;;;;;;5.12;66.70;98517.22;5172370;27;40094;-75
2021/04/30 04:55:46;;;;;;;11.67;10.53;;;;;;;5.30;66.59;98516.38;5170260;27;42574;-75
2021/04/30 04:58:13;;;;;;;12.03;10.87;;;;;;;5.45;66.21;98522.66;5153836;27;41279;-75
2021/04/30 05:00:41;;;;;;;12.20;11.00;;;;;;;5.57;65.77;98527.34;5170526;27;39858;-74
2021/04/30 05:03:09;;;;;;;10.43;9.43;;;;;;;5.65;66.38;98524.34;5170383;27;42424;-75
2021/04/30 05:05:36;;;;;;;9.40;8.50;;;;;;;5.73;66.02;98528.31;5169987;27;42444;-75
2021/04/30 05:08:03;;;;;;;11.63;10.23;;;;;;;5.71;65.91;98526.69;5153731;27;40891;-74
2021/04/30 05:10:30;;;;;;;11.00;9.90;;;;;;;5.73;65.75;98536.19;5170321;27;40820;-75
2021/04/30 05:12:58;;;;;;;16.80;15.10;;;;;;;5.72;65.58;98538.88;5152912;27;41072;-74
2021/04/30 05:15:26;;;;;;;13.47;12.07;;;;;;;5.73;66.00;98545.84;5171606;27;42530;-74
2021/04/30 05:18:03;;;;;;;12.50;11.30;;;;;;;5.71;66.03;98543.28;5170068;27;42871;-74
2021/04/30 05:20:31;;;;;;;12.63;10.43;;;;;;;5.65;65.76;98524.34;5169873;27;41590;-74
2021/04/30 05:23:00;;;;;;;10.07;9.07;;;;;;;5.75;65.66;98538.75;5172081;27;41555;-74
2021/04/30 05:25:27;;;;;;;10.57;9.47;;;;;;;5.78;65.40;98543.88;5169796;27;43454;-74
2021/04/30 05:27:54;;;;;;;9.73;8.80;;;;;;;5.80;65.52;98531.50;5171889;27;46023;-74
2021/04/30 05:30:21;;;;;;;9.33;8.43;;;;;;;6.01;65.26;98551.50;5170006;27;40495;-74
2021/04/30 05:32:48;;;;;;;9.70;8.90;;;;;;;6.15;65.03;98553.47;5153251;27;41817;-74
2021/04/30 05:35:16;;;;;;;9.90;9.00;;;;;;;6.28;65.17;98530.03;5171121;27;42594;-74
2021/04/30 05:37:44;;;;;;;10.93;9.83;;;;;;;6.46;64.83;98535.22;5152637;27;41272;-74
2021/04/30 05:40:13;;;;;;;11.33;10.23;;;;;;;6.62;64.91;98537.91;5172099;27;40856;-73
2021/04/30 05:42:41;;;;;;;14.03;11.97;;;;;;;6.81;64.32;98554.44;5168680;27;41728;-74
2021/04/30 05:45:10;;;;;;;13.93;11.80;;;;;;;6.87;64.30;98542.75;5171974;27;42730;-74
2021/04/30 05:47:37;;;;;;;13.13;11.83;;;;;;;7.02;64.18;98562.16;5170085;27;41473;-74
2021/04/30 05:50:05;;;;;;;14.23;12.33;;;;;;;7.12;63.93;98560.72;5170528;27;39620;-74
2021/04/30 05:52:33;;;;;;;12.67;11.47;;;;;;;7.24;63.35;98552.16;5152450;27;40743;-74
2021/04/30 05:55:01;;;;;;;13.17;11.37;;;;;;;7.42;63.22;98550.31;5164363;27;42657;-75
2021/04/30 05:57:28;;;;;;;15.10;12.13;;;;;;;7.60;62.80;98553.72;5149752;27;43027;-73
2021/04/30 05:59:56;;;;;;;14.33;11.93;;;;;;;7.70;62.59;98549.66;5169276;27;40433;-72
2021/04/30 06:02:24;;;;;;;13.97;12.50;;;;;;;7.89;62.04;98550.34;5169215;27;40574;-71
2021/04/30 06:04:51;;;;;;;15.03;13.53;;;;;;;8.04;61.87;98546.78;5149359;27;41859;-74
2021/04/30 06:07:18;;;;;;;12.30;11.20;;;;;;;8.32;61.30;98550.53;5168310;27;43750;-73
2021/04/30 06:09:46;;;;;;;13.80;12.40;;;;;;;8.37;60.86;98546.69;5170229;27;41675;-71
2021/04/30 06:12:14;;;;;;;13.17;11.97;;;;;;;8.48;61.04;98551.34;5169571;27;41549;-74
2021/04/30 06:14:41;;;;;;;12.63;11.43;;;;;;;8.60;61.10;98558.53;5168335;27;42869;-74
2021/04/30 06:17:08;;;;;;;14.80;12.53;;;;;;;8.81;60.69;98557.25;5168468;27;42011;-75
2021/04/30 06:19:35;;;;;;;15.37;13.90;;;;;;;9.07;60.06;98562.75;5152264;27;39278;-74
2021/04/30 06:22:03;;;;;;;15.53;14.03;;;;;;;9.32;59.61;98568.22;5169285;27;41555;-74
2021/04/30 06:24:30;;;;;;;16.00;12.97;;;;;;;9.60;59.37;98560.25;5168885;27;43301;-74
2021/04/30 06:26:57;;;;;;;14.20;12.80;;;;;;;9.63;58.95;98535.44;5151557;27;41299;-73
2021/04/30 06:29:25;;;;;;;14.70;13.30;;;;;;;10.09;57.08;98586.22;5170178;27;39114;-74
2021/04/30 06:31:52;;;;;;;16.73;15.13;;;;;;;10.86;56.10;98588.16;5151216;27;41089;-73
2021/04/30 06:34:19;;;;;;;15.17;13.80;;;;;;;11.80;52.96;98599.25;5169847;27;42066;-73
2021/04/30 06:36:46;;;;;;;14.67;13.30;;;;;;;12.34;52.57;98594.41;5169382;27;43328;-73
2021/04/30 06:39:13;;;;;;;15.27;13.87;;;;;;;12.62;52.09;98595.00;5169060;27;40669;-74
2021/04/30 06:41:40;;;;;;;13.97;12.70;;;;;;;12.47;51.23;98587.25;5169923;27;41459;-74
2021/04/30 06:44:08;;;;;;;15.33;13.70;;;;;;;12.40;51.27;98596.59;5170848;27;42460;-74
2021/04/30 06:46:35;;;;;;;15.27;13.87;;;;;;;12.53;51.07;98585.91;5169197;27;42922;-74
2021/04/30 06:49:03;;;;;;;14.47;12.87;;;;;;;12.63;51.42;98575.44;5152387;27;39654;-73
2021/04/30 06:51:30;;;;;;;15.67;14.07;;;;;;;13.07;50.78;98572.91;5169278;27;41960;-71
2021/04/30 06:53:57;;;;;;;14.43;13.13;;;;;;;13.78;50.54;98569.09;5169449;27;42433;-71
2021/04/30 06:56:25;;;;;;;13.77;12.37;;;;;;;14.28;47.95;98596.09;5151580;27;41231;-72
2021/04/30 06:58:52;;;;;;;13.57;12.33;;;;;;;14.36;46.80;98596.31;5168304;27;41561;-72
2021/04/30 07:01:19;;;;;;;12.73;11.53;;;;;;;14.33;47.15;98585.94;5170540;27;42449;-70
2021/04/30 07:03:47;;;;;;;13.50;12.20;;;;;;;14.40;47.34;98589.81;5168426;27;42699;-73
2021/04/30 07:06:15;;;;;;;14.47;13.07;;;;;;;14.30;46.16;98595.00;5168156;27;42577;-71
2021/04/30 07:08:42;;;;;;;13.47;12.10;;;;;;;14.42;47.14;98581.69;5167582;27;40050;-72
2021/04/30 07:11:09;;;;;;;13.30;12.00;;;;;;;14.56;46.98;98574.25;5169521;27;41695;-72
2021/04/30 07:13:37;;;;;;;13.57;12.27;;;;;;;14.84;44.15;98598.56;5167272;27;42825;-73
2021/04/30 07:16:06;;;;;;;12.67;11.37;;;;;;;15.31;43.57;98603.41;5169224;27;42949;-71
2021/04/30 07:18:34;;;;;;;11.30;10.23;;;;;;;15.78;41.71;98617.16;5168965;27;40649;-72
2021/04/30 07:21:02;;;;;;;13.00;11.80;;;;;;;16.04;41.92;98614.84;5169976;27;41115;-72
2021/04/30 07:23:30;;;;;;;11.37;10.27;;;;;;;16.37;41.93;98602.97;5168952;27;41670;-73
2021/04/30 07:25:57;;;;;;;12.33;11.23;;;;;;;16.93;40.17;98621.06;5167753;27;42971;-72
2021/04/30 07:28:25;;;;;;;12.10;11.03;;;;;;;17.30;38.99;98611.31;5169790;27;40189;-73
2021/04/30 07:30:53;;;;;;;12.03;10.93;;;;;;;17.99;38.27;98629.69;5154931;27;41751;-74
2021/04/30 07:33:20;;;;;;;10.73;9.67;;;;;;;18.55;36.73;98639.38;5172093;27;43513;-73
2021/04/30 07:35:47;;;;;;;11.13;10.03;;;;;;;18.96;35.61;98654.94;5172685;27;42119;-72
2021/04/30 07:38:15;;;;;;;11.77;10.77;;;;;;;19.51;34.09;98649.38;5172121;27;39815;-72
2021/04/30 07:40:44;;;;;;;11.10;10.00;;;;;;;19.82;33.17;98651.56;5171507;27;41158;-72
2021/04/30 07:43:12;;;;;;;10.50;9.60;;;;;;;19.57;34.35;98640.69;5172186;27;42667;-74
2021/04/30 07:45:41;;;;;;;9.70;8.70;;;;;;;19.75;34.40;98635.25;5153902;27;41150;-74
2021/04/30 07:48:09;;;;;;;10.47;9.43;;;;;;;20.22;34.46;98627.59;5154926;27;40325;-74
2021/04/30 07:50:37;;;;;;;11.50;10.40;;;;;;;20.76;33.11;98637.03;5170372;27;42245;-73
2021/04/30 07:53:05;;;;;;;9.50;8.70;;;;;;;21.27;30.53;98651.22;5171336;27;43269;-72
2021/04/30 07:55:33;;;;;;;8.67;7.97;;;;;;;21.55;28.85;98662.50;5157319;27;42289;-74
2021/04/30 07:58:01;;;;;;;8.30;7.60;;;;;;;21.32;31.48;98650.72;5154858;27;38693;-73
2021/04/30 08:00:30;;;;;;;9.20;8.37;;;;;;;21.03;31.65;98645.78;5153825;27;41962;-73
2021/04/30 08:02:57;;;;;;;10.60;9.27;;;;;;;20.75;31.16;98639.88;5172392;27;42698;-73
2021/04/30 08:05:24;;;;;;;10.37;9.47;;;;;;;20.64;30.98;98640.19;5171493;27;41209;-72
2021/04/30 08:07:51;;;;;;;10.53;9.53;;;;;;;20.67;32.31;98629.09;5170817;27;39918;-74
2021/04/30 08:10:18;;;;;;;10.83;9.73;;;;;;;20.63;31.98;98642.03;5170706;27;40688;-73
2021/04/30 08:12:47;;;;;;;9.60;8.70;;;;;;;20.64;32.52;98632.13;5154189;27;41832;-73
2021/04/30 08:15:16;;;;;;;10.27;9.23;;;;;;;20.90;32.33;98627.44;5170569;27;43064;-74
2021/04/30 08:17:43;;;;;;;9.60;8.10;;;;;;;21.10;30.30;98653.06;5169545;27;40754;-74
2021/04/30 08:20:11;;;;;;;10.10;9.20;;;;;;;21.92;29.24;98640.34;5170402;27;42437;-76
2021/04/30 08:22:39;;;;;;;11.47;10.37;;;;;;;23.17;27.52;98663.72;5169867;27;43561;-75
2021/04/30 08:25:07;;;;;;;10.20;9.20;;;;;;;23.65;28.38;98670.59;5170913;27;42631;-76
2021/04/30 08:27:35;;;;;;;7.23;6.63;;;;;;;25.11;27.45;98660.69;5171808;27;40489;-75
2021/04/30 08:30:05;;;;;;;7.80;7.13;;;;;;;26.22;24.63;98669.94;5171521;27;41363;-76
2021/04/30 08:32:32;;;;;;;8.73;7.93;;;;;;;26.58;22.15;98689.59;5171760;27;43428;-73
2021/04/30 08:34:59;;;;;;;8.33;7.63;;;;;;;26.00;22.00;98699.06;5171499;27;42771;-75
2021/04/30 08:37:26;;;;;;;7.43;6.80;;;;;;;25.35;23.79;98673.88;5171156;27;39710;-75
2021/04/30 08:39:54;;;;;;;8.80;8.00;;;;;;;25.37;23.38;98682.66;5153084;27;41091;-75
2021/04/30 08:42:21;;;;;;;8.77;8.07;;;;;;;26.51;22.51;98664.28;5170071;27;42397;-74
2021/04/30 08:44:48;;;;;;;8.67;7.97;;;;;;;27.12;21.96;98672.47;5171217;27;42942;-74
2021/04/30 08:47:17;;;;;;;8.67;7.90;;;;;;;27.23;22.42;98662.88;5170499;27;40991;-71
2021/04/30 08:49:45;;;;;;;7.53;6.83;;;;;;;27.34;21.90;98676.69;5171298;27;42290;-73
2021/04/30 08:52:15;;;;;;;6.57;5.97;;;;;;;26.90;22.32;98662.78;5170483;27;42045;-74
2021/04/30 08:54:42;;;;;;;7.63;7.03;;;;;;;26.12;23.64;98649.44;5171102;27;42730;-74
2021/04/30 08:57:11;;;;;;;6.73;6.13;;;;;;;25.77;24.54;98653.19;5183985;27;40538;-74
2021/04/30 08:59:38;;;;;;;8.23;7.37;;;;;;;25.40;23.23;98674.13;5147798;27;42116;-73
2021/04/30 09:02:05;;;;;;;7.53;6.93;;;;;;;24.82;24.86;98649.97;5170498;27;43779;-73
2021/04/30 09:04:34;;;;;;;9.30;8.33;;;;;;;24.39;25.11;98660.69;5152715;27;42263;-71
2021/04/30 09:07:20;;;;;;;8.03;7.33;;;;;;;23.93;26.25;98639.22;5170150;27;39890;-75
2021/04/30 09:10:02;;;;;;;7.60;7.00;;;;;;;23.64;26.83;98639.16;5168827;27;41747;-72
2021/04/30 09:12:31;;;;;;;7.57;6.87;;;;;;;23.39;27.02;98624.16;5171286;27;42829;-74
2021/04/30 09:14:59;;;;;;;8.77;7.97;;;;;;;23.19;25.95;98640.91;5152564;27;41953;-73
2021/04/30 09:17:27;;;;;;;9.77;8.87;;;;;;;22.98;26.11;98627.22;5169502;27;39724;-74
2021/04/30 09:19:59;;;;;;;8.37;7.60;;;;;;;22.86;26.95;98628.66;5168988;27;41884;-73
2021/04/30 09:22:28;;;;;;;8.60;7.80;;;;;;;22.66;27.04;98622.00;5170502;27;43537;-76
2021/04/30 09:24:56;;;;;;;9.37;8.57;;;;;;;22.28;26.80;98599.44;5169644;27;43417;-74
2021/04/30 09:27:37;;;;;;;8.20;7.50;;;;;;;22.26;27.58;98626.59;5170263;27;41415;-73
2021/04/30 09:30:22;;;;;;;12.40;9.43;;;;;;;22.13;27.81;98626.34;5171146;27;41927;-74
2021/04/30 09:33:06;;;;;;;8.57;7.67;;;;;;;22.22;27.39;98625.28;5170218;27;41670;-74
2021/04/30 09:35:35;;;;;;;9.00;8.10;;;;;;;22.28;27.80;98612.94;5167035;27;42642;-73
2021/04/30 09:38:24;;;;;;;8.97;8.03;;;;;;;22.12;28.00;98613.88;5171536;27;40367;-73
2021/04/30 09:40:53;;;;;;;7.13;6.53;;;;;;;21.80;28.69;98594.03;5170667;27;41661;-73
2021/04/30 09:43:20;;;;;;;8.43;7.73;;;;;;;21.54;28.66;98597.97;5169950;27;43472;-73
2021/04/30 09:45:48;;;;;;;8.67;7.97;;;;;;;21.11;28.61;98591.97;5170099;27;42348;-76
2021/04/30 09:48:15;;;;;;;9.53;8.70;;;;;;;20.87;29.58;98600.03;5153420;27;39027;-76
2021/04/30 09:50:45;;;;;;;8.50;7.70;;;;;;;20.78;29.84;98612.63;5167323;27;41751;-75
2021/04/30 09:53:13;;;;;;;7.37;6.50;;;;;;;20.72;29.88;98602.53;5168372;27;41732;-74
2021/04/30 09:55:42;;;;;;;7.97;7.20;;;;;;;20.69;30.17;98600.16;5170490;27;41773;-74
2021/04/30 09:58:15;;;;;;;7.40;6.80;;;;;;;20.55;30.14;98593.56;5170862;27;39342;-76
2021/04/30 10:00:43;;;;;;;9.83;8.83;;;;;;;20.46;29.61;98591.03;5170112;27;40911;-74
2021/04/30 10:03:19;;;;;;;7.77;7.17;;;;;;;20.42;30.84;98585.13;5151887;27;42773;-74
2021/04/30 10:06:04;;;;;;;8.77;8.00;;;;;;;20.44;30.30;98583.97;5170004;27;42509;-73
2021/04/30 10:08:33;;;;;;;10.13;9.07;;;;;;;20.44;29.71;98583.97;5170351;27;39755;-74
2021/04/30 10:11:00;;;;;;;7.60;6.60;;;;;;;20.47;29.85;98571.22;5170580;27;42117;-74
2021/04/30 10:13:29;;;;;;;7.43;6.73;;;;;;;20.42;29.29;98575.22;5170679;27;20240;-74
2021/04/30 10:15:57;;;;;;;7.23;6.53;;;;;;;20.28;29.55;98583.06;5171025;27;42187;-76
2021/04/30 10:18:25;;;;;;;8.37;7.57;;;;;;;20.10;30.53;98588.56;5151765;27;40249;-75
2021/04/30 10:21:21;;;;;;;7.83;7.13;;;;;;;19.84;30.93;98583.25;5124756;27;20578;-74
2021/04/30 10:23:50;;;;;;;9.93;9.03;;;;;;;19.55;31.19;98569.31;5125511;27;39538;-73
2021/04/30 10:26:20;;;;;;;7.37;6.60;;;;;;;19.35;31.60;98574.03;5125194;27;41633;-73
2021/04/30 10:28:51;;;;;;;6.93;6.37;;;;;;;19.08;31.97;98575.00;5125191;27;42539;-74
2021/04/30 10:31:22;;;;;;;7.17;5.87;;;;;;;18.84;32.66;98553.34;5125301;27;42847;-75
2021/04/30 10:33:55;;;;;;;7.00;6.50;;;;;;;18.68;32.93;98543.31;5125128;27;39591;-75
2021/04/30 10:36:29;;;;;;;6.83;6.23;;;;;;;18.61;33.94;98542.25;5123917;27;41542;-76
2021/04/30 10:38:58;;;;;;;6.57;5.97;;;;;;;18.49;33.34;98540.78;5125970;27;42563;-76
2021/04/30 10:41:29;;;;;;;7.67;6.93;;;;;;;18.36;32.86;98553.72;5123534;27;42162;-76
2021/04/30 10:44:14;;;;;;;7.57;6.87;;;;;;;18.14;33.01;98545.13;5126425;27;39676;-75
2021/04/30 10:46:41;;;;;;;8.13;7.23;;;;;;;18.01;32.93;98541.97;5123933;27;40766;-75
2021/04/30 10:49:19;;;;;;;8.20;7.40;;;;;;;17.79;33.25;98534.34;5124517;27;43400;-76
2021/04/30 10:52:18;;;;;;;6.63;6.03;;;;;;;17.79;34.00;98539.69;5120603;27;42393;-77
2021/04/30 10:54:59;;;;;;;6.87;6.27;;;;;;;17.84;34.62;98543.59;5099173;27;38982;-75
2021/04/30 10:57:27;;;;;;;10.07;8.17;;;;;;;17.88;34.14;98558.41;5124872;27;40780;-77
2021/04/30 10:59:54;;;;;;;7.37;6.77;;;;;;;17.90;34.51;98552.91;5123140;27;42659;-73
2021/04/30 11:02:28;;;;;;;7.10;6.40;;;;;;;17.96;34.22;98546.91;5125522;27;41871;-74
2021/04/30 11:05:10;;;;;;;7.27;6.57;;;;;;;17.99;35.09;98530.56;5106560;27;38795;-73
2021/04/30 11:07:40;;;;;;;7.77;6.60;;;;;;;18.07;34.51;98535.16;5123253;27;42603;-72
2021/04/30 11:10:35;;;;;;;9.20;8.30;;;;;;;18.21;32.68;98559.59;5106004;27;41593;-73
2021/04/30 11:13:14;;;;;;;5.03;4.63;;;;;;;18.37;33.26;98552.72;5113908;27;41094;-74
2021/04/30 11:15:57;;;;;;;7.83;7.03;;;;;;;18.62;33.30;98560.06;5122821;27;39610;-74
2021/04/30 11:18:25;;;;;;;8.10;7.30;;;;;;;18.75;32.89;98555.13;5121969;27;41572;-72
2021/04/30 11:21:07;;;;;;;7.00;6.40;;;;;;;18.85;32.10;98571.16;5122873;27;43213;-74
2021/04/30 11:23:40;;;;;;;7.30;6.60;;;;;;;18.76;32.35;98553.31;5123544;27;43206;-75
2021/04/30 11:26:12;;;;;;;7.37;5.60;;;;;;;18.91;32.07;98568.69;5106976;27;40256;-72
2021/04/30 11:29:11;;;;;;;6.93;6.13;;;;;;;18.68;31.21;98570.16;5125427;27;42509;-74
2021/04/30 11:31:39;;;;;;;6.27;5.67;;;;;;;18.55;31.15;98564.28;5115768;27;42579;-72
2021/04/30 11:34:20;;;;;;;4.40;4.00;;;;;;;18.59;32.52;98557.66;5092686;28;42278;-73
2021/04/30 11:36:58;;;;;;;5.80;5.00;;;;;;;18.60;32.25;98548.63;5108909;28;40624;-74
2021/04/30 11:39:32;;;;;;;5.43;4.93;;;;;;;18.55;32.78;98556.25;5108991;28;41505;-76
2021/04/30 11:42:03;;;;;;;6.47;5.70;;;;;;;18.50;33.41;98546.00;5109788;28;41799;-74